createdAt,value
2019-01-31T00:00:02.251Z,36.40
2019-01-31T00:01:02.280Z,40.90
2019-01-31T00:02:02.266Z,41.60
2019-01-31T00:03:02.233Z,38.60
2019-01-31T00:04:02.210Z,38.30
2019-01-31T00:05:02.193Z,40.00
2019-01-31T00:06:02.223Z,39.80
2019-01-31T00:07:02.166Z,50.00
2019-01-31T00:08:02.159Z,39.20
2019-01-31T00:09:02.165Z,40.00
2019-01-31T00:10:02.150Z,33.50
2019-01-31T00:11:02.137Z,37.30
2019-01-31T00:12:02.155Z,42.10
2019-01-31T00:13:02.108Z,43.40
2019-01-31T00:14:02.097Z,40.50
2019-01-31T00:15:02.109Z,38.80
2019-01-31T00:16:02.100Z,41.00
2019-01-31T00:17:02.080Z,42.50
2019-01-31T00:18:02.085Z,43.40
2019-01-31T00:19:02.187Z,38.00
2019-01-31T00:20:02.030Z,40.90
2019-01-31T00:21:02.042Z,39.20
2019-01-31T00:22:02.046Z,40.10
2019-01-31T00:23:02.032Z,37.30
2019-01-31T00:24:02.008Z,43.40
2019-01-31T00:25:01.980Z,37.30
2019-01-31T00:26:01.967Z,39.10
2019-01-31T00:27:01.953Z,44.10
2019-01-31T00:28:01.981Z,38.50
2019-01-31T00:29:01.941Z,36.00
2019-01-31T00:30:01.935Z,40.70
2019-01-31T00:31:01.912Z,44.80
2019-01-31T00:32:01.906Z,42.30
2019-01-31T00:33:01.914Z,38.50
2019-01-31T00:34:01.930Z,37.30
2019-01-31T00:35:01.896Z,34.40
2019-01-31T00:36:01.868Z,37.70
2019-01-31T00:37:01.849Z,41.60
2019-01-31T00:38:01.845Z,38.80
2019-01-31T00:39:01.851Z,42.70
2019-01-31T00:40:01.858Z,39.20
2019-01-31T00:41:01.814Z,40.80
2019-01-31T00:42:01.843Z,39.60
2019-01-31T00:43:01.793Z,38.70
2019-01-31T00:44:01.790Z,34.90
2019-01-31T00:45:01.761Z,41.90
2019-01-31T00:46:01.765Z,41.60
2019-01-31T00:47:01.767Z,35.60
2019-01-31T00:48:01.776Z,39.90
2019-01-31T00:49:01.728Z,41.50
2019-01-31T00:50:01.739Z,40.50
2019-01-31T00:51:01.701Z,37.60
2019-01-31T00:52:01.699Z,36.80
2019-01-31T00:53:01.706Z,33.30
2019-01-31T00:54:01.718Z,36.70
2019-01-31T00:55:01.674Z,40.90
2019-01-31T00:56:01.670Z,38.50
2019-01-31T00:57:01.667Z,40.10
2019-01-31T00:58:01.629Z,43.90
2019-01-31T00:59:01.643Z,37.80
2019-01-31T01:00:01.614Z,37.50
2019-01-31T01:01:01.610Z,37.30
2019-01-31T01:02:01.611Z,36.30
2019-01-31T01:03:01.596Z,35.90
2019-01-31T01:04:01.575Z,45.40
2019-01-31T01:05:01.593Z,36.70
2019-01-31T01:06:01.558Z,35.10
2019-01-31T01:07:01.559Z,39.00
2019-01-31T01:08:01.523Z,36.10
2019-01-31T01:09:07.610Z,39.70
2019-01-31T01:10:02.493Z,38.90
2019-01-31T01:11:01.484Z,38.90
2019-01-31T01:12:04.406Z,38.10
2019-01-31T01:13:01.474Z,40.90
2019-01-31T01:14:01.459Z,35.80
2019-01-31T01:15:01.475Z,38.80
2019-01-31T01:16:01.452Z,37.60
2019-01-31T01:17:01.430Z,35.70
2019-01-31T01:18:01.441Z,39.40
2019-01-31T01:19:01.409Z,36.80
2019-01-31T01:20:01.394Z,38.70
2019-01-31T01:21:01.385Z,36.70
2019-01-31T01:22:01.365Z,37.30
2019-01-31T01:23:01.355Z,41.00
2019-01-31T01:24:01.446Z,40.30
2019-01-31T01:25:01.352Z,34.70
2019-01-31T01:26:01.332Z,35.20
2019-01-31T01:27:01.334Z,36.20
2019-01-31T01:28:01.318Z,39.80
2019-01-31T01:29:01.519Z,34.70
2019-01-31T01:30:01.279Z,35.70
2019-01-31T01:31:01.279Z,34.10
2019-01-31T01:32:01.261Z,36.90
2019-01-31T01:33:01.260Z,35.10
2019-01-31T01:34:01.679Z,33.70
2019-01-31T01:35:02.078Z,37.30
2019-01-31T01:36:01.213Z,37.60
2019-01-31T01:37:01.225Z,38.40
2019-01-31T01:38:01.205Z,34.60
2019-01-31T01:39:01.197Z,37.70
2019-01-31T01:40:01.260Z,35.30
2019-01-31T01:41:01.162Z,39.20
2019-01-31T01:42:01.152Z,36.90
2019-01-31T01:43:01.139Z,32.40
2019-01-31T01:44:01.127Z,35.20
2019-01-31T01:45:01.148Z,36.30
2019-01-31T01:46:01.121Z,41.80
2019-01-31T01:47:01.107Z,38.40
2019-01-31T01:48:01.102Z,33.30
2019-01-31T01:49:01.096Z,38.30
2019-01-31T01:50:01.114Z,39.80
2019-01-31T01:51:01.075Z,36.80
2019-01-31T01:52:01.059Z,41.00
2019-01-31T01:53:01.032Z,36.30
2019-01-31T01:54:01.027Z,38.20
2019-01-31T01:55:01.035Z,38.10
2019-01-31T01:56:01.030Z,33.00
2019-01-31T01:57:01.028Z,36.00
2019-01-31T01:58:01.005Z,30.50
2019-01-31T01:59:00.986Z,35.20
2019-01-31T02:00:00.981Z,32.00
2019-01-31T02:01:00.978Z,34.90
2019-01-31T02:02:00.967Z,33.80
2019-01-31T02:03:00.932Z,39.30
2019-01-31T02:04:00.915Z,33.30
2019-01-31T02:05:00.913Z,38.30
2019-01-31T02:06:00.936Z,30.30
2019-01-31T02:07:00.886Z,31.00
2019-01-31T02:08:00.883Z,35.90
2019-01-31T02:09:00.922Z,34.30
2019-01-31T02:10:00.874Z,33.80
2019-01-31T02:11:00.852Z,33.30
2019-01-31T02:12:00.865Z,33.80
2019-01-31T02:13:00.826Z,35.80
2019-01-31T02:14:00.808Z,34.90
2019-01-31T02:15:00.794Z,28.70
2019-01-31T02:16:00.787Z,35.00
2019-01-31T02:17:00.783Z,36.80
2019-01-31T02:18:00.794Z,32.30
2019-01-31T02:19:00.768Z,34.30
2019-01-31T02:20:00.805Z,35.90
2019-01-31T02:21:00.734Z,33.20
2019-01-31T02:22:00.725Z,33.30
2019-01-31T02:23:00.755Z,35.40
2019-01-31T02:24:00.724Z,32.80
2019-01-31T02:25:00.698Z,34.60
2019-01-31T02:26:00.702Z,32.90
2019-01-31T02:27:00.669Z,35.80
2019-01-31T02:28:00.662Z,29.70
2019-01-31T02:29:00.679Z,36.30
2019-01-31T02:30:00.649Z,28.40
2019-01-31T02:31:00.641Z,34.70
2019-01-31T02:32:00.627Z,35.90
2019-01-31T02:33:00.602Z,33.00
2019-01-31T02:34:00.647Z,31.60
2019-01-31T02:35:00.589Z,34.40
2019-01-31T02:36:00.593Z,33.10
2019-01-31T02:37:00.585Z,31.40
2019-01-31T02:38:00.562Z,28.90
2019-01-31T02:39:00.538Z,32.00
2019-01-31T02:40:00.552Z,28.90
2019-01-31T02:41:00.533Z,31.80
2019-01-31T02:42:00.516Z,34.40
2019-01-31T02:43:00.513Z,30.00
2019-01-31T02:44:00.514Z,31.10
2019-01-31T02:45:00.509Z,33.20
2019-01-31T02:46:00.470Z,31.80
2019-01-31T02:47:00.468Z,31.00
2019-01-31T02:48:00.479Z,31.40
2019-01-31T02:49:00.445Z,30.40
2019-01-31T02:50:00.565Z,32.70
2019-01-31T02:51:00.439Z,33.10
2019-01-31T02:52:00.409Z,31.50
2019-01-31T02:53:00.406Z,32.30
2019-01-31T02:54:00.396Z,35.20
2019-01-31T02:55:00.670Z,34.10
2019-01-31T02:56:00.402Z,27.20
2019-01-31T02:57:00.347Z,34.20
2019-01-31T02:58:00.337Z,30.40
2019-01-31T02:59:00.332Z,30.20
2019-01-31T03:00:00.383Z,28.70
2019-01-31T03:01:00.324Z,35.80
2019-01-31T03:02:00.322Z,29.50
2019-01-31T03:03:00.297Z,35.70
2019-01-31T03:04:00.281Z,29.00
2019-01-31T03:05:00.430Z,29.90
2019-01-31T03:06:00.252Z,26.60
2019-01-31T03:07:00.263Z,28.30
2019-01-31T03:08:00.227Z,29.20
2019-01-31T03:09:00.224Z,31.10
2019-01-31T03:10:00.228Z,30.70
2019-01-31T03:11:00.204Z,28.30
2019-01-31T03:12:00.207Z,31.60
2019-01-31T03:13:00.221Z,29.00
2019-01-31T03:14:09.968Z,30.00
2019-01-31T03:15:01.187Z,26.80
2019-01-31T03:16:00.156Z,27.50
2019-01-31T03:17:00.133Z,30.20
2019-01-31T03:18:00.136Z,32.50
2019-01-31T03:19:00.141Z,32.50
2019-01-31T03:20:00.864Z,34.20
2019-01-31T03:21:00.096Z,30.10
2019-01-31T03:22:00.102Z,29.00
2019-01-31T03:23:00.097Z,29.70
2019-01-31T03:24:00.089Z,29.40
2019-01-31T03:25:00.054Z,31.70
2019-01-31T03:26:00.085Z,31.90
2019-01-31T03:27:00.055Z,31.80
2019-01-31T03:28:00.063Z,30.70
2019-01-31T03:29:00.013Z,29.70
2019-01-31T03:30:00.021Z,31.90
2019-01-31T03:30:59.986Z,32.60
2019-01-31T03:31:59.977Z,29.00
2019-01-31T03:32:59.978Z,28.00
2019-01-31T03:33:59.985Z,27.70
2019-01-31T03:34:59.984Z,30.20
2019-01-31T03:35:59.951Z,34.30
2019-01-31T03:36:59.920Z,29.20
2019-01-31T03:37:59.915Z,33.90
2019-01-31T03:38:59.901Z,30.50
2019-01-31T03:40:06.860Z,29.30
2019-01-31T03:41:00.921Z,28.60
2019-01-31T03:41:59.883Z,29.60
2019-01-31T03:42:59.862Z,30.00
2019-01-31T03:43:59.845Z,31.90
2019-01-31T03:44:59.852Z,32.80
2019-01-31T03:45:59.828Z,28.30
2019-01-31T03:46:59.899Z,27.00
2019-01-31T03:47:59.832Z,28.50
2019-01-31T03:48:59.796Z,29.00
2019-01-31T03:49:59.781Z,30.40
2019-01-31T03:50:59.787Z,29.10
2019-01-31T03:51:59.787Z,29.50
2019-01-31T03:52:59.769Z,36.20
2019-01-31T03:53:59.749Z,36.00
2019-01-31T03:54:59.740Z,26.80
2019-01-31T03:55:59.726Z,27.90
2019-01-31T03:56:59.710Z,33.20
2019-01-31T03:57:59.723Z,28.40
2019-01-31T03:58:59.699Z,28.10
2019-01-31T03:59:59.687Z,29.00
2019-01-31T04:00:59.669Z,35.90
2019-01-31T04:01:59.675Z,29.70
2019-01-31T04:02:59.675Z,31.20
2019-01-31T04:03:59.638Z,29.90
2019-01-31T04:04:59.643Z,29.30
2019-01-31T04:05:59.621Z,28.50
2019-01-31T04:06:59.623Z,27.30
2019-01-31T04:07:59.677Z,28.60
2019-01-31T04:08:59.590Z,29.10
2019-01-31T04:09:59.576Z,27.60
2019-01-31T04:10:59.554Z,28.60
2019-01-31T04:11:59.542Z,28.50
2019-01-31T04:12:59.591Z,27.30
2019-01-31T04:13:59.528Z,26.50
2019-01-31T04:14:59.509Z,29.50
2019-01-31T04:15:59.506Z,27.00
2019-01-31T04:16:59.513Z,30.40
2019-01-31T04:17:59.481Z,27.30
2019-01-31T04:18:59.511Z,27.10
2019-01-31T04:19:59.474Z,29.80
2019-01-31T04:20:59.446Z,24.90
2019-01-31T04:21:59.447Z,24.70
2019-01-31T04:22:59.433Z,25.90
2019-01-31T04:23:59.426Z,24.90
2019-01-31T04:24:59.450Z,26.40
2019-01-31T04:25:59.416Z,26.00
2019-01-31T04:26:59.402Z,22.20
2019-01-31T04:27:59.427Z,26.30
2019-01-31T04:28:59.357Z,23.60
2019-01-31T04:29:59.350Z,24.40
2019-01-31T04:30:59.379Z,30.80
2019-01-31T04:31:59.354Z,29.00
2019-01-31T04:32:59.342Z,23.20
2019-01-31T04:33:59.303Z,28.40
2019-01-31T04:34:59.300Z,28.60
2019-01-31T04:35:59.314Z,26.90
2019-01-31T04:36:59.281Z,26.40
2019-01-31T04:37:59.294Z,28.10
2019-01-31T04:38:59.277Z,27.20
2019-01-31T04:39:59.264Z,28.20
2019-01-31T04:40:59.238Z,27.50
2019-01-31T04:41:59.252Z,31.10
2019-01-31T04:42:59.215Z,27.60
2019-01-31T04:43:59.221Z,28.30
2019-01-31T04:44:59.206Z,28.30
2019-01-31T04:45:59.203Z,25.50
2019-01-31T04:46:59.207Z,26.10
2019-01-31T04:47:59.155Z,28.70
2019-01-31T04:48:59.158Z,26.20
2019-01-31T04:49:59.159Z,29.40
2019-01-31T04:50:59.144Z,29.30
2019-01-31T04:51:59.150Z,29.20
2019-01-31T04:52:59.209Z,28.40
2019-01-31T04:53:59.091Z,26.60
2019-01-31T04:54:59.095Z,27.00
2019-01-31T04:55:59.075Z,26.60
2019-01-31T04:56:59.105Z,25.60
2019-01-31T04:57:59.092Z,27.70
2019-01-31T04:58:59.046Z,27.30
2019-01-31T04:59:59.040Z,26.60
2019-01-31T05:00:59.039Z,24.90
2019-01-31T05:01:59.005Z,28.20
2019-01-31T05:02:59.057Z,27.20
2019-01-31T05:03:58.995Z,28.70
2019-01-31T05:04:58.985Z,30.90
2019-01-31T05:05:58.964Z,27.10
2019-01-31T05:06:58.959Z,27.80
2019-01-31T05:07:58.951Z,25.40
2019-01-31T05:08:59.002Z,28.10
2019-01-31T05:09:58.935Z,26.20
2019-01-31T05:10:58.933Z,26.70
2019-01-31T05:11:58.908Z,23.90
2019-01-31T05:12:58.897Z,27.00
2019-01-31T05:13:58.882Z,27.20
2019-01-31T05:14:58.889Z,26.10
2019-01-31T05:15:58.856Z,26.90
2019-01-31T05:16:58.864Z,22.90
2019-01-31T05:17:58.849Z,27.10
2019-01-31T05:18:58.820Z,27.80
2019-01-31T05:19:58.852Z,23.40
2019-01-31T05:20:58.826Z,28.60
2019-01-31T05:21:58.811Z,23.30
2019-01-31T05:22:58.779Z,24.20
2019-01-31T05:23:58.787Z,25.00
2019-01-31T05:24:58.784Z,29.70
2019-01-31T05:25:58.757Z,29.50
2019-01-31T05:26:58.742Z,29.20
2019-01-31T05:27:58.741Z,26.50
2019-01-31T05:28:58.730Z,25.70
2019-01-31T05:29:58.729Z,24.00
2019-01-31T05:30:58.751Z,22.70
2019-01-31T05:31:58.702Z,33.00
2019-01-31T05:32:59.164Z,25.80
2019-01-31T05:33:58.683Z,31.80
2019-01-31T05:34:58.662Z,26.70
2019-01-31T05:35:58.646Z,22.00
2019-01-31T05:36:58.631Z,26.90
2019-01-31T05:37:58.667Z,27.80
2019-01-31T05:38:58.615Z,27.00
2019-01-31T05:39:58.608Z,23.20
2019-01-31T05:40:58.594Z,24.30
2019-01-31T05:41:58.589Z,24.10
2019-01-31T05:42:58.576Z,24.00
2019-01-31T05:43:58.576Z,23.00
2019-01-31T05:44:58.542Z,24.40
2019-01-31T05:45:58.566Z,27.20
2019-01-31T05:46:58.530Z,23.70
2019-01-31T05:47:58.530Z,25.20
2019-01-31T05:48:58.515Z,25.30
2019-01-31T05:49:58.529Z,23.20
2019-01-31T05:50:58.485Z,23.20
2019-01-31T05:51:58.493Z,24.60
2019-01-31T05:52:58.475Z,25.70
2019-01-31T05:53:58.464Z,26.40
2019-01-31T05:54:58.453Z,28.20
2019-01-31T05:55:58.450Z,26.30
2019-01-31T05:56:58.414Z,23.80
2019-01-31T05:57:58.438Z,25.50
2019-01-31T05:58:58.412Z,27.70
2019-01-31T05:59:58.420Z,30.50
2019-01-31T06:00:58.392Z,25.30
2019-01-31T06:01:58.416Z,23.90
2019-01-31T06:02:58.361Z,28.50
2019-01-31T06:03:58.345Z,23.10
2019-01-31T06:04:58.337Z,22.30
2019-01-31T06:05:58.338Z,24.30
2019-01-31T06:06:58.323Z,26.10
2019-01-31T06:07:58.333Z,28.30
2019-01-31T06:08:58.300Z,28.70
2019-01-31T06:09:58.269Z,24.90
2019-01-31T06:11:07.087Z,25.60
2019-01-31T06:11:59.266Z,25.60
2019-01-31T06:12:58.291Z,26.30
2019-01-31T06:13:58.265Z,28.20
2019-01-31T06:14:58.238Z,26.40
2019-01-31T06:15:58.215Z,28.60
2019-01-31T06:16:58.211Z,29.50
2019-01-31T06:17:58.224Z,27.20
2019-01-31T06:18:58.187Z,26.90
2019-01-31T06:19:58.180Z,28.40
2019-01-31T06:20:58.170Z,23.70
2019-01-31T06:21:58.142Z,25.20
2019-01-31T06:22:58.146Z,25.00
2019-01-31T06:23:58.168Z,27.50
2019-01-31T06:24:58.128Z,24.00
2019-01-31T06:25:58.142Z,28.60
2019-01-31T06:26:58.116Z,24.80
2019-01-31T06:27:58.087Z,24.90
2019-01-31T06:28:58.101Z,24.60
2019-01-31T06:29:58.123Z,28.10
2019-01-31T06:30:58.049Z,25.00
2019-01-31T06:31:58.059Z,26.20
2019-01-31T06:32:58.070Z,21.10
2019-01-31T06:33:58.515Z,25.50
2019-01-31T06:34:58.034Z,26.10
2019-01-31T06:35:58.006Z,24.00
2019-01-31T06:36:58.013Z,26.70
2019-01-31T06:37:57.986Z,26.20
2019-01-31T06:38:57.994Z,23.20
2019-01-31T06:39:57.980Z,23.60
2019-01-31T06:40:57.982Z,27.20
2019-01-31T06:41:57.944Z,23.50
2019-01-31T06:42:57.935Z,25.70
2019-01-31T06:43:57.949Z,28.50
2019-01-31T06:44:57.909Z,28.10
2019-01-31T06:45:58.129Z,27.30
2019-01-31T06:46:57.937Z,25.50
2019-01-31T06:47:57.913Z,26.80
2019-01-31T06:48:57.857Z,24.30
2019-01-31T06:49:57.952Z,25.10
2019-01-31T06:50:57.974Z,25.50
2019-01-31T06:51:57.912Z,22.40
2019-01-31T06:52:58.255Z,24.00
2019-01-31T06:53:57.810Z,23.90
2019-01-31T06:54:57.801Z,27.80
2019-01-31T06:55:57.793Z,26.90
2019-01-31T06:56:57.801Z,25.20
2019-01-31T06:57:57.805Z,27.10
2019-01-31T06:58:57.775Z,22.10
2019-01-31T06:59:57.754Z,24.20
2019-01-31T07:00:57.730Z,27.50
2019-01-31T07:01:57.734Z,24.80
2019-01-31T07:02:57.712Z,25.20
2019-01-31T07:03:57.727Z,25.80
2019-01-31T07:04:57.698Z,23.50
2019-01-31T07:05:57.697Z,22.30
2019-01-31T07:06:57.678Z,26.60
2019-01-31T07:07:57.664Z,28.40
2019-01-31T07:08:57.679Z,26.70
2019-01-31T07:09:57.649Z,27.80
2019-01-31T07:10:57.633Z,22.20
2019-01-31T07:11:57.632Z,25.00
2019-01-31T07:12:57.601Z,28.30
2019-01-31T07:13:57.599Z,25.60
2019-01-31T07:14:57.613Z,25.20
2019-01-31T07:15:57.586Z,22.60
2019-01-31T07:16:57.572Z,21.80
2019-01-31T07:17:57.587Z,27.30
2019-01-31T07:18:57.553Z,23.40
2019-01-31T07:19:57.529Z,27.40
2019-01-31T07:20:57.537Z,23.40
2019-01-31T07:21:57.532Z,23.10
2019-01-31T07:22:57.506Z,22.70
2019-01-31T07:23:57.496Z,29.10
2019-01-31T07:24:57.487Z,26.20
2019-01-31T07:25:57.489Z,22.80
2019-01-31T07:26:57.460Z,29.60
2019-01-31T07:27:57.452Z,26.10
2019-01-31T07:28:57.447Z,29.10
2019-01-31T07:29:57.459Z,28.70
2019-01-31T07:30:57.417Z,28.80
2019-01-31T07:31:57.428Z,27.60
2019-01-31T07:32:57.397Z,21.80
2019-01-31T07:33:57.383Z,25.20
2019-01-31T07:34:57.384Z,22.10
2019-01-31T07:35:57.362Z,20.90
2019-01-31T07:36:57.359Z,25.50
2019-01-31T07:37:57.368Z,23.60
2019-01-31T07:38:57.343Z,24.00
2019-01-31T07:39:57.316Z,22.00
2019-01-31T07:40:57.319Z,23.40
2019-01-31T07:41:57.337Z,26.10
2019-01-31T07:42:57.292Z,22.40
2019-01-31T07:43:57.272Z,22.10
2019-01-31T07:44:57.268Z,25.00
2019-01-31T07:45:57.253Z,20.70
2019-01-31T07:46:57.259Z,24.30
2019-01-31T07:47:57.263Z,22.80
2019-01-31T07:48:57.234Z,23.10
2019-01-31T07:49:57.217Z,24.00
2019-01-31T07:50:57.237Z,31.00
2019-01-31T07:51:57.188Z,24.10
2019-01-31T07:52:57.177Z,28.70
2019-01-31T07:53:57.165Z,23.30
2019-01-31T07:54:57.168Z,25.40
2019-01-31T07:55:57.148Z,24.00
2019-01-31T07:56:57.152Z,23.90
2019-01-31T07:57:57.133Z,27.60
2019-01-31T07:58:57.129Z,23.10
2019-01-31T07:59:57.118Z,23.90
2019-01-31T08:00:57.100Z,23.80
2019-01-31T08:01:57.081Z,25.70
2019-01-31T08:02:57.111Z,23.50
2019-01-31T08:04:02.479Z,23.80
2019-01-31T08:04:58.063Z,25.10
2019-01-31T08:05:57.036Z,27.50
2019-01-31T08:06:57.024Z,22.90
2019-01-31T08:07:57.025Z,25.10
2019-01-31T08:08:57.009Z,23.10
2019-01-31T08:09:57.035Z,24.20
2019-01-31T08:10:56.995Z,21.70
2019-01-31T08:11:56.972Z,28.50
2019-01-31T08:12:56.963Z,23.10
2019-01-31T08:13:56.978Z,21.20
2019-01-31T08:14:56.946Z,36.60
2019-01-31T08:15:56.946Z,25.30
2019-01-31T08:16:56.936Z,25.80
2019-01-31T08:17:56.914Z,24.20
2019-01-31T08:18:56.908Z,23.80
2019-01-31T08:19:56.893Z,30.00
2019-01-31T08:20:56.903Z,28.40
2019-01-31T08:21:56.878Z,25.60
2019-01-31T08:22:59.813Z,28.00
2019-01-31T08:23:56.841Z,25.40
2019-01-31T08:24:56.831Z,26.30
2019-01-31T08:25:56.842Z,22.00
2019-01-31T08:26:56.808Z,21.60
2019-01-31T08:27:56.815Z,22.60
2019-01-31T08:28:56.800Z,19.10
2019-01-31T08:29:56.780Z,24.50
2019-01-31T08:30:56.789Z,29.10
2019-01-31T08:31:56.774Z,27.00
2019-01-31T08:32:56.765Z,28.70
2019-01-31T08:33:56.747Z,22.90
2019-01-31T08:34:56.756Z,23.50
2019-01-31T08:35:56.762Z,26.90
2019-01-31T08:36:56.711Z,23.50
2019-01-31T08:37:56.709Z,24.30
2019-01-31T08:38:56.681Z,23.70
2019-01-31T08:39:56.684Z,26.80
2019-01-31T08:40:56.676Z,27.30
2019-01-31T08:42:03.468Z,28.20
2019-01-31T08:42:57.936Z,28.50
2019-01-31T08:43:56.647Z,28.50
2019-01-31T08:44:56.613Z,25.30
2019-01-31T08:45:56.614Z,28.50
2019-01-31T08:46:56.602Z,23.60
2019-01-31T08:47:56.586Z,23.00
2019-01-31T08:48:56.599Z,24.10
2019-01-31T08:49:56.563Z,26.70
2019-01-31T08:50:56.715Z,27.00
2019-01-31T08:51:56.561Z,28.50
2019-01-31T08:52:56.599Z,23.70
2019-01-31T08:53:56.531Z,28.60
2019-01-31T08:54:56.548Z,22.70
2019-01-31T08:55:56.493Z,27.10
2019-01-31T08:56:56.493Z,27.10
2019-01-31T08:57:56.479Z,24.40
2019-01-31T08:58:56.465Z,25.30
2019-01-31T08:59:56.459Z,29.40
2019-01-31T09:00:56.455Z,26.80
2019-01-31T09:01:56.434Z,23.50
2019-01-31T09:02:56.421Z,23.20
2019-01-31T09:03:56.411Z,21.70
2019-01-31T09:04:56.405Z,21.20
2019-01-31T09:05:56.434Z,28.60
2019-01-31T09:06:56.376Z,25.20
2019-01-31T09:07:56.373Z,29.50
2019-01-31T09:08:56.368Z,27.00
2019-01-31T09:09:56.349Z,23.00
2019-01-31T09:10:56.330Z,20.00
2019-01-31T09:11:56.350Z,24.40
2019-01-31T09:12:56.331Z,24.90
2019-01-31T09:13:56.314Z,23.50
2019-01-31T09:14:56.299Z,23.50
2019-01-31T09:15:56.277Z,22.40
2019-01-31T09:16:56.334Z,23.80
2019-01-31T09:17:56.275Z,23.30
2019-01-31T09:18:56.270Z,26.50
2019-01-31T09:19:56.238Z,26.20
2019-01-31T09:20:56.219Z,25.10
2019-01-31T09:21:56.244Z,28.10
2019-01-31T09:22:56.224Z,21.60
2019-01-31T09:23:56.213Z,22.50
2019-01-31T09:24:56.193Z,20.10
2019-01-31T09:25:56.179Z,21.50
2019-01-31T09:26:56.163Z,21.90
2019-01-31T09:27:56.196Z,17.70
2019-01-31T09:28:56.138Z,26.50
2019-01-31T09:29:56.137Z,21.80
2019-01-31T09:30:56.124Z,23.70
2019-01-31T09:31:56.116Z,22.30
2019-01-31T09:32:56.106Z,24.20
2019-01-31T09:33:56.101Z,23.90
2019-01-31T09:34:56.078Z,21.30
2019-01-31T09:35:56.081Z,20.00
2019-01-31T09:36:56.061Z,22.70
2019-01-31T09:37:56.088Z,21.70
2019-01-31T09:38:56.066Z,18.00
2019-01-31T09:39:56.019Z,19.40
2019-01-31T09:40:56.018Z,17.90
2019-01-31T09:41:56.007Z,20.00
2019-01-31T09:42:55.997Z,23.30
2019-01-31T09:43:56.192Z,20.10
2019-01-31T09:44:56.013Z,20.40
2019-01-31T09:45:56.321Z,20.60
2019-01-31T09:46:55.992Z,22.60
2019-01-31T09:47:55.970Z,20.00
2019-01-31T09:48:55.933Z,18.40
2019-01-31T09:49:55.911Z,21.80
2019-01-31T09:50:55.967Z,24.20
2019-01-31T09:51:55.907Z,25.40
2019-01-31T09:52:55.877Z,24.90
2019-01-31T09:53:55.870Z,19.90
2019-01-31T09:54:55.889Z,20.60
2019-01-31T09:55:55.951Z,18.50
2019-01-31T09:56:55.922Z,20.60
2019-01-31T09:57:55.879Z,20.30
2019-01-31T09:58:55.864Z,19.60
2019-01-31T09:59:55.883Z,18.60
2019-01-31T10:00:55.834Z,18.10
2019-01-31T10:01:55.789Z,18.90
2019-01-31T10:02:55.770Z,19.60
2019-01-31T10:03:55.775Z,17.80
2019-01-31T10:04:55.754Z,21.80
2019-01-31T10:05:55.734Z,19.10
2019-01-31T10:06:55.764Z,20.10
2019-01-31T10:07:55.728Z,17.30
2019-01-31T10:08:55.805Z,17.80
2019-01-31T10:09:55.710Z,20.40
2019-01-31T10:10:55.697Z,18.90
2019-01-31T10:11:55.772Z,18.80
2019-01-31T10:12:55.778Z,19.50
2019-01-31T10:13:55.672Z,16.40
2019-01-31T10:14:55.649Z,17.30
2019-01-31T10:15:55.718Z,17.00
2019-01-31T10:16:55.703Z,18.70
2019-01-31T10:17:55.671Z,17.30
2019-01-31T10:18:55.706Z,19.10
2019-01-31T10:19:55.608Z,20.70
2019-01-31T10:20:55.651Z,18.30
2019-01-31T10:21:55.703Z,15.50
2019-01-31T10:22:55.642Z,16.20
2019-01-31T10:23:55.610Z,17.10
2019-01-31T10:24:55.651Z,18.90
2019-01-31T10:25:55.547Z,21.40
2019-01-31T10:26:55.524Z,15.80
2019-01-31T10:27:55.519Z,15.80
2019-01-31T10:28:55.587Z,15.40
2019-01-31T10:29:55.614Z,14.10
2019-01-31T10:30:55.487Z,15.40
2019-01-31T10:31:55.510Z,15.20
2019-01-31T10:32:55.448Z,18.00
2019-01-31T10:33:55.461Z,17.20
2019-01-31T10:34:55.467Z,15.40
2019-01-31T10:35:55.411Z,17.30
2019-01-31T10:36:55.450Z,19.50
2019-01-31T10:37:55.393Z,14.80
2019-01-31T10:38:55.398Z,15.20
2019-01-31T10:39:55.371Z,17.10
2019-01-31T10:40:55.377Z,15.60
2019-01-31T10:41:55.346Z,12.40
2019-01-31T10:42:55.354Z,15.90
2019-01-31T10:43:55.329Z,14.80
2019-01-31T10:44:55.304Z,15.20
2019-01-31T10:45:55.341Z,16.90
2019-01-31T10:46:55.303Z,16.00
2019-01-31T10:47:55.282Z,17.20
2019-01-31T10:48:55.290Z,18.80
2019-01-31T10:49:55.265Z,15.90
2019-01-31T10:50:55.267Z,17.50
2019-01-31T10:51:55.278Z,22.60
2019-01-31T10:52:55.222Z,16.30
2019-01-31T10:53:55.207Z,17.10
2019-01-31T10:54:55.199Z,15.60
2019-01-31T10:55:55.266Z,18.70
2019-01-31T10:56:55.177Z,18.40
2019-01-31T10:57:55.236Z,17.90
2019-01-31T10:58:55.158Z,16.90
2019-01-31T10:59:55.182Z,16.30
2019-01-31T11:00:55.177Z,13.90
2019-01-31T11:01:55.182Z,18.20
2019-01-31T11:02:55.134Z,16.20
2019-01-31T11:03:55.098Z,16.00
2019-01-31T11:04:55.159Z,13.60
2019-01-31T11:05:55.090Z,17.30
2019-01-31T11:06:55.067Z,17.10
2019-01-31T11:07:55.078Z,15.90
2019-01-31T11:08:55.101Z,14.30
2019-01-31T11:09:55.055Z,16.10
2019-01-31T11:10:55.053Z,13.80
2019-01-31T11:11:55.069Z,14.00
2019-01-31T11:13:00.718Z,14.00
2019-01-31T11:13:56.032Z,14.80
2019-01-31T11:14:54.991Z,16.90
2019-01-31T11:15:54.968Z,16.00
2019-01-31T11:16:54.973Z,14.30
2019-01-31T11:17:54.969Z,17.00
2019-01-31T11:18:55.186Z,14.00
2019-01-31T11:19:54.969Z,13.80
2019-01-31T11:20:54.942Z,14.70
2019-01-31T11:21:54.927Z,13.80
2019-01-31T11:22:54.913Z,19.20
2019-01-31T11:23:54.909Z,16.00
2019-01-31T11:24:54.865Z,18.00
2019-01-31T11:25:54.862Z,18.20
2019-01-31T11:26:57.037Z,15.10
2019-01-31T11:27:54.850Z,16.60
2019-01-31T11:28:54.823Z,16.20
2019-01-31T11:29:54.871Z,13.00
2019-01-31T11:30:54.823Z,12.70
2019-01-31T11:31:54.786Z,11.90
2019-01-31T11:32:54.797Z,13.10
2019-01-31T11:33:54.803Z,12.40
2019-01-31T11:34:54.809Z,12.50
2019-01-31T11:35:54.787Z,13.40
2019-01-31T11:36:54.748Z,12.00
2019-01-31T11:37:54.724Z,11.60
2019-01-31T11:38:54.716Z,12.50
2019-01-31T11:39:54.741Z,11.80
2019-01-31T11:40:54.709Z,12.70
2019-01-31T11:41:54.802Z,10.60
2019-01-31T11:42:54.665Z,13.20
2019-01-31T11:43:54.666Z,13.20
2019-01-31T11:44:54.694Z,10.50
2019-01-31T11:45:54.668Z,13.60
2019-01-31T11:46:54.664Z,13.60
2019-01-31T11:47:54.640Z,15.70
2019-01-31T11:48:54.604Z,14.10
2019-01-31T11:49:54.612Z,13.10
2019-01-31T11:50:54.585Z,14.50
2019-01-31T11:51:54.627Z,12.60
2019-01-31T11:52:54.574Z,12.60
2019-01-31T11:53:54.543Z,12.90
2019-01-31T11:54:55.311Z,13.90
2019-01-31T11:55:54.555Z,14.10
2019-01-31T11:57:05.011Z,14.60
2019-01-31T11:57:55.548Z,13.90
2019-01-31T11:58:54.509Z,15.40
2019-01-31T11:59:54.471Z,16.30
2019-01-31T12:00:54.479Z,12.90
2019-01-31T12:01:54.457Z,10.90
2019-01-31T12:02:55.370Z,12.50
2019-01-31T12:03:54.447Z,12.70
2019-01-31T12:04:55.370Z,15.40
2019-01-31T12:05:54.442Z,12.30
2019-01-31T12:06:54.421Z,10.20
2019-01-31T12:07:54.389Z,9.50
2019-01-31T12:08:54.406Z,7.80
2019-01-31T12:09:54.363Z,8.70
2019-01-31T12:10:54.354Z,9.10
2019-01-31T12:11:54.357Z,7.20
2019-01-31T12:12:54.348Z,9.40
2019-01-31T12:13:54.322Z,13.00
2019-01-31T12:14:54.335Z,8.00
2019-01-31T12:15:54.317Z,7.60
2019-01-31T12:16:54.292Z,7.30
2019-01-31T12:17:54.289Z,8.10
2019-01-31T12:18:54.276Z,9.90
2019-01-31T12:19:54.287Z,8.30
2019-01-31T12:20:54.267Z,9.00
2019-01-31T12:21:54.235Z,12.10
2019-01-31T12:22:54.228Z,7.60
2019-01-31T12:23:54.226Z,8.70
2019-01-31T12:24:54.214Z,8.90
2019-01-31T12:25:54.215Z,8.00
2019-01-31T12:26:54.216Z,7.30
2019-01-31T12:27:54.190Z,6.80
2019-01-31T12:28:54.160Z,6.60
2019-01-31T12:29:54.156Z,10.00
2019-01-31T12:30:54.139Z,6.40
2019-01-31T12:31:54.151Z,6.30
2019-01-31T12:32:54.111Z,6.30
2019-01-31T12:33:54.100Z,9.90
2019-01-31T12:34:54.096Z,8.20
2019-01-31T12:35:54.076Z,10.40
2019-01-31T12:36:54.077Z,15.30
2019-01-31T12:37:54.090Z,10.10
2019-01-31T12:38:55.017Z,9.70
2019-01-31T12:39:54.039Z,8.60
2019-01-31T12:40:54.033Z,7.30
2019-01-31T12:41:54.011Z,7.00
2019-01-31T12:42:54.025Z,7.20
2019-01-31T12:43:54.033Z,8.90
2019-01-31T12:44:54.002Z,8.20
2019-01-31T12:45:53.967Z,8.80
2019-01-31T12:46:53.992Z,7.80
2019-01-31T12:47:53.967Z,8.70
2019-01-31T12:48:53.976Z,8.30
2019-01-31T12:49:53.950Z,7.00
2019-01-31T12:50:53.924Z,8.20
2019-01-31T12:51:53.906Z,9.80
2019-01-31T12:52:53.996Z,10.20